Time;durP1;ratioP1;P1;durP2;ratioP2;P2;SDS_P1;SDS_P2;PMS_P1;PMS_P2;Temp;Humidity;BMP_temperature;BMP_pressure;BME280_temperature;BME280_humidity;BME280_pressure;Samples;Min_cycle;Max_cycle;Signal;HPM_P1;HPM_P2
2024/01/01 00:01:00;;;;;;;;;;;;;;;6.58;83.31;100017.53;4211270;28;20015;-69
2024/01/01 00:03:04;;;;;;;;;;;;;;;6.58;83.24;100006.78;4213017;28;20030;-69
2024/01/01 00:05:07;;;;;;;;;;;;;;;6.57;83.30;99997.91;4202306;28;19967;-70
2024/01/01 00:07:09;;;;;;;;;;;;;;;6.56;83.41;99998.09;4212275;28;20011;-70
2024/01/01 00:09:11;;;;;;;;;;;;;;;6.56;83.43;100008.81;4213060;28;20019;-70
2024/01/01 00:11:13;;;;;;;;;;;;;;;6.54;83.63;100000.94;4211487;28;20023;-70
2024/01/01 00:13:16;;;;;;;;;;;;;;;6.53;83.49;100001.09;4211045;28;20376;-70
2024/01/01 00:15:18;;;;;;;;;;;;;;;6.53;83.76;100001.94;4212124;28;20022;-70
2024/01/01 00:17:19;;;;;;;;;;;;;;;6.52;83.87;100002.94;4213086;28;20010;-70
2024/01/01 00:19:21;;;;;;;;;;;;;;;6.52;83.95;99997.59;4211843;28;20496;-70
2024/01/01 00:21:23;;;;;;;;;;;;;;;6.51;83.63;99997.75;4211345;28;20043;-70
2024/01/01 00:23:25;;;;;;;;;;;;;;;6.51;83.72;99997.75;4212562;28;20372;-70
2024/01/01 00:25:32;;;;;;;;;;;;;;;6.51;83.90;100003.13;4212261;28;19935;-70
2024/01/01 00:27:34;;;;;;;;;;;;;;;6.51;84.19;100001.28;4212830;28;20011;-70
2024/01/01 00:29:37;;;;;;;;;;;;;;;6.50;83.96;99999.59;4210429;28;20011;-70
2024/01/01 00:31:39;;;;;;;;;;;;;;;6.49;84.21;100001.44;4210537;28;20027;-70
2024/01/01 00:33:42;;;;;;;;;;;;;;;6.51;84.21;100011.16;4219219;28;20468;-69
2024/01/01 00:35:45;;;;;;;;;;;;;;;6.51;84.17;100000.44;4219671;28;20043;-71
2024/01/01 00:37:47;;;;;;;;;;;;;;;6.51;84.18;100003.94;4211899;28;20035;-69
2024/01/01 00:39:49;;;;;;;;;;;;;;;6.49;83.93;99990.72;4212589;28;20043;-69
2024/01/01 00:41:51;;;;;;;;;;;;;;;6.49;83.89;99988.03;4210687;28;20020;-69
2024/01/01 00:43:53;;;;;;;;;;;;;;;6.49;84.18;99992.56;4212190;28;20399;-69
2024/01/01 00:45:56;;;;;;;;;;;;;;;6.48;84.06;100001.59;4209958;28;19963;-69
2024/01/01 00:47:58;;;;;;;;;;;;;;;6.46;83.74;99993.72;4211681;28;20014;-69
2024/01/01 00:50:00;;;;;;;;;;;;;;;6.45;84.06;100002.78;4211576;28;20020;-69
2024/01/01 00:52:02;;;;;;;;;;;;;;;6.44;83.74;99993.06;4210776;28;20027;-69
2024/01/01 00:54:04;;;;;;;;;;;;;;;6.42;84.11;100008.47;4211586;28;20027;-69
2024/01/01 00:56:07;;;;;;;;;;;;;;;6.42;83.83;100010.31;4210512;28;20011;-69
2024/01/01 00:58:09;;;;;;;;;;;;;;;6.41;84.00;100003.28;4210697;28;20380;-69
2024/01/01 01:00:12;;;;;;;;;;;;;;;6.41;83.82;100011.31;4218904;28;20015;-69
2024/01/01 01:02:16;;;;;;;;;;;;;;;6.39;84.12;100006.13;4202740;28;20368;-69
2024/01/01 01:04:17;;;;;;;;;;;;;;;6.39;84.06;99999.94;4212358;28;20038;-69
2024/01/01 01:06:19;;;;;;;;;;;;;;;6.38;84.08;100006.28;4211727;28;19924;-69
2024/01/01 01:08:21;;;;;;;;;;;;;;;6.38;83.86;100011.66;4211169;28;20370;-71
2024/01/01 01:10:22;;;;;;;;;;;;;;;6.37;84.10;100007.31;4209547;28;20011;-71
2024/01/01 01:12:24;;;;;;;;;;;;;;;6.37;84.04;100012.69;4211432;28;20548;-71
2024/01/01 01:14:26;;;;;;;;;;;;;;;6.35;84.10;100012.84;4210782;28;20497;-70
2024/01/01 01:16:27;;;;;;;;;;;;;;;6.36;83.89;100005.63;4200480;28;20043;-71
2024/01/01 01:18:31;;;;;;;;;;;;;;;6.35;84.08;100001.25;4210637;28;20035;-71
2024/01/01 01:20:33;;;;;;;;;;;;;;;6.34;84.07;100000.44;4212060;28;20015;-71
2024/01/01 01:22:35;;;;;;;;;;;;;;;6.34;83.80;100000.44;4210565;28;19959;-68
2024/01/01 01:24:37;;;;;;;;;;;;;;;6.32;84.18;100000.59;4210535;28;20012;-69
2024/01/01 01:26:38;;;;;;;;;;;;;;;6.32;84.06;99997.91;4194351;28;20462;-69
2024/01/01 01:28:40;;;;;;;;;;;;;;;6.31;83.99;100001.59;4210936;28;19924;-68
2024/01/01 01:30:42;;;;;;;;;;;;;;;6.31;84.12;99984.66;4208822;28;20018;-69
2024/01/01 01:32:44;;;;;;;;;;;;;;;6.30;84.19;99982.97;4209505;28;20007;-68
2024/01/01 01:34:46;;;;;;;;;;;;;;;6.28;84.06;99991.19;4210628;28;20020;-70
2024/01/01 01:36:48;;;;;;;;;;;;;;;6.28;84.12;99993.06;4211502;28;20032;-70
2024/01/01 01:38:50;;;;;;;;;;;;;;;6.27;83.99;99991.38;4211878;28;20015;-68
2024/01/01 01:40:52;;;;;;;;;;;;;;;6.26;83.87;99984.34;4208661;28;20012;-70
2024/01/01 01:42:53;;;;;;;;;;;;;;;6.27;84.15;99994.91;4211136;28;20030;-68
2024/01/01 01:44:55;;;;;;;;;;;;;;;6.27;84.18;99988.69;4219007;28;20036;-70
2024/01/01 01:46:57;;;;;;;;;;;;;;;6.27;84.39;99989.53;4211207;28;20426;-70
2024/01/01 01:48:59;;;;;;;;;;;;;;;6.27;84.41;99988.69;4210435;28;20024;-69
2024/01/01 01:51:03;;;;;;;;;;;;;;;6.28;84.26;99985.00;4211208;28;20027;-69
2024/01/01 01:53:05;;;;;;;;;;;;;;;6.27;84.61;99986.00;4210392;28;20007;-69
2024/01/01 01:55:07;;;;;;;;;;;;;;;6.27;84.62;99986.00;4210896;28;20026;-69
2024/01/01 01:57:09;;;;;;;;;;;;;;;6.26;84.26;99990.53;4218980;28;20015;-69
2024/01/01 01:59:11;;;;;;;;;;;;;;;6.27;84.42;99991.38;4218358;28;20019;-69
2024/01/01 02:01:13;;;;;;;;;;;;;;;6.26;84.50;99982.50;4202384;28;20031;-69
2024/01/01 02:03:15;;;;;;;;;;;;;;;6.26;84.37;99981.66;4211278;28;20015;-69
2024/01/01 02:05:17;;;;;;;;;;;;;;;6.26;84.25;99977.13;4210042;28;20023;-69
2024/01/01 02:07:20;;;;;;;;;;;;;;;6.25;84.11;99974.63;4209153;28;19924;-69
2024/01/01 02:09:22;;;;;;;;;;;;;;;6.22;83.94;99975.81;4218029;28;20010;-69
2024/01/01 02:11:24;;;;;;;;;;;;;;;6.21;84.10;99967.94;4210349;28;20457;-69
2024/01/01 02:13:30;;;;;;;;;;;;;;;6.21;84.13;99971.44;4201541;28;20459;-69
2024/01/01 02:15:31;;;;;;;;;;;;;;;6.22;84.24;99978.50;4210680;28;20469;-69
2024/01/01 02:17:33;;;;;;;;;;;;;;;6.21;84.21;99974.13;4210865;28;20468;-69
2024/01/01 02:19:34;;;;;;;;;;;;;;;6.19;83.79;99976.13;4210596;28;20095;-69
2024/01/01 02:21:36;;;;;;;;;;;;;;;6.20;84.06;99975.13;4209525;28;19928;-69
2024/01/01 02:23:40;;;;;;;;;;;;;;;6.20;83.99;99974.28;4211111;28;20346;-69
2024/01/01 02:25:41;;;;;;;;;;;;;;;6.20;83.95;99968.94;4211303;28;20010;-69
2024/01/01 02:27:43;;;;;;;;;;;;;;;6.19;83.72;99973.47;4214298;28;20440;-69
2024/01/01 02:29:45;;;;;;;;;;;;;;;6.19;83.93;99972.59;4213809;28;20014;-69
2024/01/01 02:31:47;;;;;;;;;;;;;;;6.17;83.82;99972.75;4213857;28;20031;-69
2024/01/01 02:33:49;;;;;;;;;;;;;;;6.19;83.93;99969.91;4213908;28;20031;-69
2024/01/01 02:35:51;;;;;;;;;;;;;;;6.18;83.57;99965.59;4204088;28;20047;-69
2024/01/01 02:37:52;;;;;;;;;;;;;;;6.18;83.75;99971.78;4213029;28;20016;-69
2024/01/01 02:39:55;;;;;;;;;;;;;;;6.17;83.77;99969.25;4213394;28;20405;-70
2024/01/01 02:41:57;;;;;;;;;;;;;;;6.15;83.37;99966.75;4212598;28;19966;-70
2024/01/01 02:43:58;;;;;;;;;;;;;;;6.15;83.72;99969.44;4214971;28;20023;-70
2024/01/01 02:46:00;;;;;;;;;;;;;;;6.13;83.55;99964.22;4214866;28;19959;-70
2024/01/01 02:48:02;;;;;;;;;;;;;;;6.13;83.40;99966.91;4205579;28;19929;-70
2024/01/01 02:50:04;;;;;;;;;;;;;;;6.11;83.39;99968.06;4213239;28;20023;-70
2024/01/01 02:52:06;;;;;;;;;;;;;;;6.09;83.40;99970.09;4206170;28;20030;-70
2024/01/01 02:54:08;;;;;;;;;;;;;;;6.10;83.71;99967.25;4214873;28;20019;-70
2024/01/01 02:56:17;;;;;;;;;;;;;;;6.08;83.52;99966.59;4214783;28;20015;-70
2024/01/01 02:58:19;;;;;;;;;;;;;;;6.08;83.46;99968.41;4214157;28;20040;-70
2024/01/01 03:00:21;;;;;;;;;;;;;;;6.06;83.49;99973.09;4214640;28;20451;-70
2024/01/01 03:02:22;;;;;;;;;;;;;;;6.05;83.41;99969.59;4213916;28;20418;-70
2024/01/01 03:04:28;;;;;;;;;;;;;;;6.04;83.67;99973.28;4213910;28;20012;-70
2024/01/01 03:06:30;;;;;;;;;;;;;;;6.02;83.55;99975.28;4213224;28;20479;-70
2024/01/01 03:08:31;;;;;;;;;;;;;;;5.98;83.51;99968.56;4195603;28;20607;-70
2024/01/01 03:10:33;;;;;;;;;;;;;;;6.00;83.40;99977.28;4212711;28;20043;-70
2024/01/01 03:12:36;;;;;;;;;;;;;;;6.01;83.59;99978.13;4212903;28;20027;-70
2024/01/01 03:14:38;;;;;;;;;;;;;;;5.98;83.57;99976.63;4213622;28;20407;-70
2024/01/01 03:16:39;;;;;;;;;;;;;;;5.98;83.54;99975.78;4214038;28;20575;-70
2024/01/01 03:18:41;;;;;;;;;;;;;;;5.97;83.40;99982.13;4212966;28;19963;-70
2024/01/01 03:20:43;;;;;;;;;;;;;;;5.96;83.37;99978.59;4213145;28;20477;-70
2024/01/01 03:22:45;;;;;;;;;;;;;;;5.94;83.53;99981.44;4214319;28;20367;-70
2024/01/01 03:24:46;;;;;;;;;;;;;;;5.92;83.15;99970.06;4213507;28;20386;-70
2024/01/01 03:26:48;;;;;;;;;;;;;;;5.91;83.48;99972.91;4221134;28;20006;-70
2024/01/01 03:28:51;;;;;;;;;;;;;;;5.90;83.52;99972.03;4212643;28;19963;-70
2024/01/01 03:30:53;;;;;;;;;;;;;;;5.90;83.38;99971.22;4210235;28;20008;-70
2024/01/01 03:32:54;;;;;;;;;;;;;;;5.86;83.35;99969.84;4210963;28;20014;-70
2024/01/01 03:34:57;;;;;;;;;;;;;;;5.86;83.34;99968.03;4212586;28;20441;-70
2024/01/01 03:36:59;;;;;;;;;;;;;;;5.85;83.53;99971.72;4211418;28;20031;-70
2024/01/01 03:39:02;;;;;;;;;;;;;;;5.84;83.58;99972.72;4213164;28;20007;-70
2024/01/01 03:41:04;;;;;;;;;;;;;;;5.83;83.66;99973.72;4220370;28;19959;-70
2024/01/01 03:43:06;;;;;;;;;;;;;;;5.83;83.52;99971.06;4212929;28;20015;-70
2024/01/01 03:45:10;;;;;;;;;;;;;;;5.84;83.82;99982.59;4214152;28;20022;-70
2024/01/01 03:47:12;;;;;;;;;;;;;;;5.82;83.72;99981.94;4213275;28;20022;-70
2024/01/01 03:49:14;;;;;;;;;;;;;;;5.80;83.57;99971.38;4212631;28;20432;-70
2024/01/01 03:51:16;;;;;;;;;;;;;;;5.81;83.61;99977.56;4213086;28;19924;-70
2024/01/01 03:53:18;;;;;;;;;;;;;;;5.80;83.60;99967.84;4212867;28;20019;-70
2024/01/01 03:55:20;;;;;;;;;;;;;;;5.78;83.51;99965.31;4212217;28;20019;-70
2024/01/01 03:57:22;;;;;;;;;;;;;;;5.77;83.82;99963.66;4203488;28;20015;-70
2024/01/01 03:59:24;;;;;;;;;;;;;;;5.78;83.80;99968.00;4219608;28;19993;-70
2024/01/01 04:01:27;;;;;;;;;;;;;;;5.77;83.66;99956.47;4213633;28;20011;-70
2024/01/01 04:03:29;;;;;;;;;;;;;;;5.77;83.73;99958.31;4203586;28;19991;-70
2024/01/01 04:05:31;;;;;;;;;;;;;;;5.76;83.68;99962.81;4220051;28;20113;-70
2024/01/01 04:07:32;;;;;;;;;;;;;;;5.77;83.62;99958.31;4220017;28;20010;-70
2024/01/01 04:09:34;;;;;;;;;;;;;;;5.76;83.28;99953.94;4203394;28;19940;-71
2024/01/01 04:11:36;;;;;;;;;;;;;;;5.76;83.34;99953.94;4201943;28;20028;-70
2024/01/01 04:13:38;;;;;;;;;;;;;;;5.76;83.54;99954.78;4211214;28;20019;-70
2024/01/01 04:15:40;;;;;;;;;;;;;;;5.75;83.63;99961.16;4213042;28;20019;-70
2024/01/01 04:17:44;;;;;;;;;;;;;;;5.75;83.42;99963.84;4213416;28;20019;-70
2024/01/01 04:19:47;;;;;;;;;;;;;;;5.74;83.26;99962.16;4212702;28;20453;-70
2024/01/01 04:21:49;;;;;;;;;;;;;;;5.72;83.25;99958.81;4212662;28;20454;-70
2024/01/01 04:23:51;;;;;;;;;;;;;;;5.72;83.26;99955.25;4212980;28;20351;-70
2024/01/01 04:25:53;;;;;;;;;;;;;;;5.70;83.27;99952.75;4213058;28;19995;-70
2024/01/01 04:27:55;;;;;;;;;;;;;;;5.70;83.49;99954.59;4213038;28;19931;-71
2024/01/01 04:29:56;;;;;;;;;;;;;;;5.69;83.34;99956.44;4209013;28;20383;-70
2024/01/01 04:31:58;;;;;;;;;;;;;;;5.65;83.18;99957.78;4211040;28;20024;-70
2024/01/01 04:34:01;;;;;;;;;;;;;;;5.66;83.42;99959.47;4210970;28;20011;-70
2024/01/01 04:36:04;;;;;;;;;;;;;;;5.67;83.49;99957.59;4211876;28;20015;-70
2024/01/01 04:38:05;;;;;;;;;;;;;;;5.66;83.55;99956.78;4211956;28;20018;-70
2024/01/01 04:40:08;;;;;;;;;;;;;;;5.65;83.38;99963.13;4211969;28;20138;-70
2024/01/01 04:42:10;;;;;;;;;;;;;;;5.65;83.55;99967.66;4212170;28;20346;-70
2024/01/01 04:44:12;;;;;;;;;;;;;;;5.65;83.58;99960.44;4211407;28;20484;-70
2024/01/01 04:46:13;;;;;;;;;;;;;;;5.65;83.49;99954.25;4212630;28;20022;-70
2024/01/01 04:48:15;;;;;;;;;;;;;;;5.65;83.64;99963.13;4211201;28;20019;-70
2024/01/01 04:50:17;;;;;;;;;;;;;;;5.64;83.67;99953.41;4212759;28;20008;-70
2024/01/01 04:52:19;;;;;;;;;;;;;;;5.64;83.68;99964.13;4212034;28;20019;-70
2024/01/01 04:54:21;;;;;;;;;;;;;;;5.64;83.76;99953.41;4210626;28;19973;-70
2024/01/01 04:56:23;;;;;;;;;;;;;;;5.64;83.41;99958.75;4212876;28;20031;-70
2024/01/01 04:58:25;;;;;;;;;;;;;;;5.64;83.66;99952.56;4212172;28;20010;-70
2024/01/01 05:00:27;;;;;;;;;;;;;;;5.65;83.32;99957.78;4211442;28;20015;-70
2024/01/01 05:02:29;;;;;;;;;;;;;;;5.64;83.60;99952.56;4211715;28;19966;-70
2024/01/01 05:04:31;;;;;;;;;;;;;;;5.63;83.59;99946.38;4211702;28;20014;-70
2024/01/01 05:06:34;;;;;;;;;;;;;;;5.64;83.59;99947.22;4211195;28;20015;-70
2024/01/01 05:08:36;;;;;;;;;;;;;;;5.65;83.71;99948.91;4211658;28;20027;-70
2024/01/01 05:10:38;;;;;;;;;;;;;;;5.66;83.29;99948.75;4209937;28;20461;-70
2024/01/01 05:12:40;;;;;;;;;;;;;;;5.66;83.61;99942.53;4210938;28;20027;-70
2024/01/01 05:14:42;;;;;;;;;;;;;;;5.67;83.24;99944.22;4211411;28;20449;-70
2024/01/01 05:16:46;;;;;;;;;;;;;;;5.67;83.26;99942.34;4212252;28;20050;-70
2024/01/01 05:18:48;;;;;;;;;;;;;;;5.67;83.65;99942.34;4211569;28;20022;-70
2024/01/01 05:20:50;;;;;;;;;;;;;;;5.68;83.26;99929.81;4211868;28;20039;-70
2024/01/01 05:22:54;;;;;;;;;;;;;;;5.69;83.63;99940.38;4212038;28;20018;-70
2024/01/01 05:24:55;;;;;;;;;;;;;;;5.71;83.69;99934.84;4211039;28;20022;-70
2024/01/01 05:26:57;;;;;;;;;;;;;;;5.72;83.69;99937.38;4212131;28;20007;-70
2024/01/01 05:28:59;;;;;;;;;;;;;;;5.73;83.77;99941.69;4211611;28;20023;-70
2024/01/01 05:31:01;;;;;;;;;;;;;;;5.73;83.51;99936.34;4211419;28;19924;-70
2024/01/01 05:33:03;;;;;;;;;;;;;;;5.72;83.56;99934.69;4211074;28;20010;-70
2024/01/01 05:35:06;;;;;;;;;;;;;;;5.74;83.53;99929.16;4211472;28;20007;-70
2024/01/01 05:37:08;;;;;;;;;;;;;;;5.76;83.31;99930.66;4210422;28;20007;-69
2024/01/01 05:39:11;;;;;;;;;;;;;;;5.76;83.34;99925.28;4211443;28;20023;-70
2024/01/01 05:41:13;;;;;;;;;;;;;;;5.79;83.37;99932.19;4208640;28;20018;-70
2024/01/01 05:43:15;;;;;;;;;;;;;;;5.78;83.26;99934.03;4210099;28;20082;-70
2024/01/01 05:45:17;;;;;;;;;;;;;;;5.80;83.14;99935.69;4211669;28;20027;-70
2024/01/01 05:47:19;;;;;;;;;;;;;;;5.82;83.24;99941.75;4211195;28;20016;-70
2024/01/01 05:49:21;;;;;;;;;;;;;;;5.84;83.30;99951.25;4211563;28;20410;-70
2024/01/01 05:51:23;;;;;;;;;;;;;;;5.85;83.26;99946.75;4211721;28;20374;-70
2024/01/01 05:53:25;;;;;;;;;;;;;;;5.85;83.27;99952.13;4210978;28;20018;-70
2024/01/01 05:55:28;;;;;;;;;;;;;;;5.85;83.26;99955.63;4211581;28;20368;-70
2024/01/01 05:57:30;;;;;;;;;;;;;;;5.87;83.34;99944.75;4210437;28;20011;-70
2024/01/01 05:59:32;;;;;;;;;;;;;;;5.88;83.64;99944.59;4211751;28;20019;-70
2024/01/01 06:01:34;;;;;;;;;;;;;;;5.89;83.67;99951.63;4205703;28;20011;-70
2024/01/01 06:03:36;;;;;;;;;;;;;;;5.91;83.58;99949.63;4215061;28;20019;-70
2024/01/01 06:05:37;;;;;;;;;;;;;;;5.92;83.50;99945.94;4214387;28;20023;-70
2024/01/01 06:07:39;;;;;;;;;;;;;;;5.91;83.64;99944.25;4213110;28;19931;-70
2024/01/01 06:09:41;;;;;;;;;;;;;;;5.94;83.48;99946.59;4214681;28;20074;-70
2024/01/01 06:11:45;;;;;;;;;;;;;;;5.95;83.82;99958.16;4212252;28;20638;-70
2024/01/01 06:13:47;;;;;;;;;;;;;;;5.97;83.71;99955.34;4214098;28;20030;-70
2024/01/01 06:15:50;;;;;;;;;;;;;;;5.98;83.53;99955.16;4215192;28;20018;-70
2024/01/01 06:17:52;;;;;;;;;;;;;;;5.99;83.96;99961.34;4214978;28;20030;-70
2024/01/01 06:19:56;;;;;;;;;;;;;;;5.99;83.56;99959.53;4222356;27;20023;-70
2024/01/01 06:21:58;;;;;;;;;;;;;;;6.00;83.59;99950.47;4220732;28;19967;-70
2024/01/01 06:23:59;;;;;;;;;;;;;;;6.01;83.79;99954.84;4214826;28;20020;-70
2024/01/01 06:26:02;;;;;;;;;;;;;;;6.01;83.47;99952.16;4213696;28;20022;-70
2024/01/01 06:28:05;;;;;;;;;;;;;;;6.03;83.63;99958.19;4213798;28;20027;-70
2024/01/01 06:30:08;;;;;;;;;;;;;;;6.05;83.33;99952.66;4213868;28;19971;-70
2024/01/01 06:32:11;;;;;;;;;;;;;;;6.06;83.49;99948.97;4214445;28;19935;-70
2024/01/01 06:34:13;;;;;;;;;;;;;;;6.06;83.49;99951.66;4213715;28;20462;-70
2024/01/01 06:36:15;;;;;;;;;;;;;;;6.07;83.50;99950.66;4213220;28;20018;-70
2024/01/01 06:38:17;;;;;;;;;;;;;;;6.07;83.38;99954.16;4212711;28;20026;-70
2024/01/01 06:40:19;;;;;;;;;;;;;;;6.07;83.39;99947.97;4213318;28;20383;-70
2024/01/01 06:42:20;;;;;;;;;;;;;;;6.07;83.42;99950.66;4213569;28;20015;-70
2024/01/01 06:44:25;;;;;;;;;;;;;;;6.07;83.58;99951.50;4214257;28;19977;-70
2024/01/01 06:46:27;;;;;;;;;;;;;;;6.09;83.33;99951.31;4214244;28;20437;-70
2024/01/01 06:48:28;;;;;;;;;;;;;;;6.11;83.43;99957.34;4214073;28;20020;-70
2024/01/01 06:50:30;;;;;;;;;;;;;;;6.11;83.30;99954.66;4214333;28;19928;-70
2024/01/01 06:52:32;;;;;;;;;;;;;;;6.11;83.32;99954.66;4213205;28;19924;-70
2024/01/01 06:54:33;;;;;;;;;;;;;;;6.12;83.20;99959.03;4213995;28;20023;-70
2024/01/01 06:56:39;;;;;;;;;;;;;;;6.14;83.40;99962.38;4213047;28;19928;-69
2024/01/01 06:58:41;;;;;;;;;;;;;;;6.16;83.35;99964.88;4213631;28;20011;-70
2024/01/01 07:00:45;;;;;;;;;;;;;;;6.16;82.95;99964.88;4211735;28;20011;-70
2024/01/01 07:02:47;;;;;;;;;;;;;;;6.17;83.19;99962.03;4213205;28;20015;-70
2024/01/01 07:04:49;;;;;;;;;;;;;;;6.18;82.85;99962.91;4196468;28;20044;-70
2024/01/01 07:06:50;;;;;;;;;;;;;;;6.17;82.85;99970.09;4214650;28;20354;-70
2024/01/01 07:08:53;;;;;;;;;;;;;;;6.18;82.63;99976.31;4213765;28;20023;-69
2024/01/01 07:10:53;;;;;;;;;;;;;;;6.18;82.98;99982.50;4213371;28;20031;-70
2024/01/01 07:12:55;;;;;;;;;;;;;;;6.19;82.97;99983.31;4212912;28;20294;-70
2024/01/01 07:14:56;;;;;;;;;;;;;;;6.18;82.92;99979.00;4213906;28;20007;-70
2024/01/01 07:17:00;;;;;;;;;;;;;;;6.17;82.72;99975.44;4213413;28;20360;-70
2024/01/01 07:19:02;;;;;;;;;;;;;;;6.18;82.71;99970.94;4212143;28;20023;-70
2024/01/01 07:21:06;;;;;;;;;;;;;;;6.17;82.39;99975.44;4213938;28;20031;-70
2024/01/01 07:23:08;;;;;;;;;;;;;;;6.17;82.67;99971.94;4213632;28;20366;-70
2024/01/01 07:25:10;;;;;;;;;;;;;;;6.18;82.30;99973.63;4213136;28;20370;-70
2024/01/01 07:27:13;;;;;;;;;;;;;;;6.17;82.60;99978.13;4213276;28;20458;-70
2024/01/01 07:29:15;;;;;;;;;;;;;;;6.19;82.58;99969.91;4212812;28;20011;-70
2024/01/01 07:31:16;;;;;;;;;;;;;;;6.19;82.35;99969.91;4213726;28;20023;-70
2024/01/01 07:33:20;;;;;;;;;;;;;;;6.19;82.29;99980.66;4187409;28;20011;-70
2024/01/01 07:35:22;;;;;;;;;;;;;;;6.16;82.05;99975.63;4213988;28;19971;-70
2024/01/01 07:37:24;;;;;;;;;;;;;;;6.15;82.21;99974.78;4213250;28;20015;-70
2024/01/01 07:39:29;;;;;;;;;;;;;;;6.14;82.46;99973.09;4210658;28;20022;-70
2024/01/01 07:41:31;;;;;;;;;;;;;;;6.16;82.46;99972.94;4212966;28;20015;-70
2024/01/01 07:43:33;;;;;;;;;;;;;;;6.16;82.28;99967.56;4212710;28;20433;-70
2024/01/01 07:45:35;;;;;;;;;;;;;;;6.15;82.17;99976.63;4213107;28;20022;-70
2024/01/01 07:47:37;;;;;;;;;;;;;;;6.13;81.90;99976.81;4213220;28;20022;-70
2024/01/01 07:49:44;;;;;;;;;;;;;;;6.13;82.25;99974.97;4212432;28;20018;-70
2024/01/01 07:51:46;;;;;;;;;;;;;;;6.11;82.26;99976.97;4213205;28;20015;-70
2024/01/01 07:53:50;;;;;;;;;;;;;;;6.11;82.42;99970.75;4212519;28;19961;-70
2024/01/01 07:55:52;;;;;;;;;;;;;;;6.10;82.19;99977.13;4220334;27;20014;-70
2024/01/01 07:57:53;;;;;;;;;;;;;;;6.09;82.32;99987.00;4213530;28;20011;-70
2024/01/01 07:59:58;;;;;;;;;;;;;;;6.09;82.12;99980.81;4212860;28;20019;-70
2024/01/01 08:02:00;;;;;;;;;;;;;;;6.08;81.98;99982.66;4212607;28;20501;-70
2024/01/01 08:04:02;;;;;;;;;;;;;;;6.09;81.95;99991.53;4213175;28;20387;-70
2024/01/01 08:06:05;;;;;;;;;;;;;;;6.09;82.08;99984.31;4213239;28;20031;-70
2024/01/01 08:08:08;;;;;;;;;;;;;;;6.05;82.08;99984.81;4213849;28;20031;-70
2024/01/01 08:10:09;;;;;;;;;;;;;;;6.08;82.34;99997.91;4211711;28;20019;-70
2024/01/01 08:12:12;;;;;;;;;;;;;;;6.09;82.09;99988.84;4211869;28;20035;-70
2024/01/01 08:14:14;;;;;;;;;;;;;;;6.09;82.06;99995.03;4209773;28;20022;-70
2024/01/01 08:16:18;;;;;;;;;;;;;;;6.10;81.99;99999.41;4213231;28;20027;-70
2024/01/01 08:18:20;;;;;;;;;;;;;;;6.11;82.17;99995.75;4219590;28;20031;-70
2024/01/01 08:20:21;;;;;;;;;;;;;;;6.12;82.13;99996.56;4213068;28;20019;-70
2024/01/01 08:22:25;;;;;;;;;;;;;;;6.14;82.36;99991.88;4212361;28;20064;-70
2024/01/01 08:24:27;;;;;;;;;;;;;;;6.16;82.12;99994.38;4212666;28;20445;-70
2024/01/01 08:26:29;;;;;;;;;;;;;;;6.20;82.30;100001.09;4213339;28;20027;-70
2024/01/01 08:28:32;;;;;;;;;;;;;;;6.21;82.34;100000.09;4212718;28;20457;-70
2024/01/01 08:30:34;;;;;;;;;;;;;;;6.22;82.30;99999.94;4211850;28;20022;-70
2024/01/01 08:32:36;;;;;;;;;;;;;;;6.25;82.32;100013.00;4212436;28;20404;-70
2024/01/01 08:34:38;;;;;;;;;;;;;;;6.28;82.61;100011.81;4194276;28;20533;-70
2024/01/01 08:36:40;;;;;;;;;;;;;;;6.29;82.24;100006.28;4212944;28;20022;-70
2024/01/01 08:38:43;;;;;;;;;;;;;;;6.31;82.42;100009.63;4211732;28;20022;-70
2024/01/01 08:40:45;;;;;;;;;;;;;;;6.34;82.45;100013.00;4209767;28;20474;-70
2024/01/01 08:42:48;;;;;;;;;;;;;;;6.37;82.36;100004.63;4211774;28;20027;-70
2024/01/01 08:44:50;;;;;;;;;;;;;;;6.38;82.48;100007.16;4220036;28;20054;-70
2024/01/01 08:46:52;;;;;;;;;;;;;;;6.38;82.48;100007.16;4212507;28;20022;-70
2024/01/01 08:48:54;;;;;;;;;;;;;;;6.40;82.86;100023.91;4212895;28;20020;-70
2024/01/01 08:50:55;;;;;;;;;;;;;;;6.43;82.70;100026.25;4218665;28;19959;-70
2024/01/01 08:52:57;;;;;;;;;;;;;;;6.46;82.64;100020.56;4212121;28;20018;-70
2024/01/01 08:55:01;;;;;;;;;;;;;;;6.49;82.91;100024.75;4211684;28;19986;-70
2024/01/01 08:57:03;;;;;;;;;;;;;;;6.52;82.94;100018.19;4212702;28;20054;-70
2024/01/01 08:59:04;;;;;;;;;;;;;;;6.55;82.49;100016.03;4212076;28;20378;-70
2024/01/01 09:01:06;;;;;;;;;;;;;;;6.57;82.88;100021.22;4211902;28;19931;-70
2024/01/01 09:03:08;;;;;;;;;;;;;;;6.59;82.73;100019.22;4212753;28;20026;-70
2024/01/01 09:05:10;;;;;;;;;;;;;;;6.63;82.56;100031.25;4213360;28;20015;-70
2024/01/01 09:07:12;;;;;;;;;;;;;;;6.68;82.35;100028.94;4212852;28;20023;-70
2024/01/01 09:09:15;;;;;;;;;;;;;;;6.71;82.42;100025.91;4212640;28;20014;-70
2024/01/01 09:11:19;;;;;;;;;;;;;;;6.74;82.26;100028.25;4211228;28;20019;-70
2024/01/01 09:13:21;;;;;;;;;;;;;;;6.77;82.22;100027.91;4212389;28;20027;-71
2024/01/01 09:15:28;;;;;;;;;;;;;;;6.81;81.99;100037.28;4211640;28;19935;-70
2024/01/01 09:17:30;;;;;;;;;;;;;;;6.87;81.74;100024.22;4213154;28;20437;-70
2024/01/01 09:19:32;;;;;;;;;;;;;;;6.88;81.22;100025.88;4212566;28;20014;-70
2024/01/01 09:21:36;;;;;;;;;;;;;;;6.91;81.32;100031.75;4212813;28;19951;-70
2024/01/01 09:23:38;;;;;;;;;;;;;;;6.93;81.27;100036.94;4214636;28;20414;-70
2024/01/01 09:25:41;;;;;;;;;;;;;;;6.95;80.82;100019.66;4212626;28;20019;-70
2024/01/01 09:27:47;;;;;;;;;;;;;;;6.97;81.01;100033.72;4211170;28;19924;-70
2024/01/01 09:29:49;;;;;;;;;;;;;;;7.01;80.72;100050.34;4211171;28;20011;-70
2024/01/01 09:31:51;;;;;;;;;;;;;;;7.03;80.73;100032.22;4212961;28;20020;-70
2024/01/01 09:33:53;;;;;;;;;;;;;;;7.03;80.70;100016.94;4210055;28;20026;-70
2024/01/01 09:35:55;;;;;;;;;;;;;;;7.04;80.70;100041.97;4211358;28;19946;-70
2024/01/01 09:37:58;;;;;;;;;;;;;;;7.05;80.36;100019.44;4212044;28;20002;-70
2024/01/01 09:39:59;;;;;;;;;;;;;;;7.08;80.60;100031.72;4211611;28;20025;-70
2024/01/01 09:42:02;;;;;;;;;;;;;;;7.10;80.17;100021.63;4209801;28;20026;-70
2024/01/01 09:44:05;;;;;;;;;;;;;;;7.09;80.13;100023.47;4210802;28;20023;-70
2024/01/01 09:46:07;;;;;;;;;;;;;;;7.10;79.91;100035.91;4211705;28;20039;-71
2024/01/01 09:48:09;;;;;;;;;;;;;;;7.11;79.89;100032.19;4212302;28;20018;-70
2024/01/01 09:50:11;;;;;;;;;;;;;;;7.10;80.04;100033.22;4211146;28;20568;-71
2024/01/01 09:52:14;;;;;;;;;;;;;;;7.14;79.74;100045.28;4212691;28;20010;-70
2024/01/01 09:54:15;;;;;;;;;;;;;;;7.15;79.86;100033.53;4211669;28;20019;-71
2024/01/01 09:56:18;;;;;;;;;;;;;;;7.15;79.52;100040.75;4211839;28;19955;-70
2024/01/01 09:58:20;;;;;;;;;;;;;;;7.15;79.63;100033.53;4211375;28;20441;-70
2024/01/01 10:00:22;;;;;;;;;;;;;;;7.16;79.34;100021.78;4210953;28;20027;-70
2024/01/01 10:02:24;;;;;;;;;;;;;;;7.16;79.44;100024.47;4209216;28;20022;-70
2024/01/01 10:04:25;;;;;;;;;;;;;;;7.17;79.29;100023.44;4211056;28;20023;-70
2024/01/01 10:06:27;;;;;;;;;;;;;;;7.16;79.51;100018.25;4209484;28;19989;-70
2024/01/01 10:08:29;;;;;;;;;;;;;;;7.16;79.40;100026.31;4211510;28;20364;-70
2024/01/01 10:10:31;;;;;;;;;;;;;;;7.14;79.58;100022.97;4208225;28;20010;-70
2024/01/01 10:12:33;;;;;;;;;;;;;;;7.16;79.45;100034.38;4210813;28;20031;-70
2024/01/01 10:14:39;;;;;;;;;;;;;;;7.17;79.23;100026.13;4201908;28;20019;-70
2024/01/01 10:16:42;;;;;;;;;;;;;;;7.15;79.34;100025.47;4211009;28;20361;-70
2024/01/01 10:18:44;;;;;;;;;;;;;;;7.14;79.46;100037.22;4210877;28;20363;-71
2024/01/01 10:20:46;;;;;;;;;;;;;;;7.14;79.37;100026.47;4210770;28;20473;-70
2024/01/01 10:22:48;;;;;;;;;;;;;;;7.14;79.33;100029.16;4211462;28;20486;-70
2024/01/01 10:24:52;;;;;;;;;;;;;;;7.15;79.23;100036.22;4210457;28;20015;-70
2024/01/01 10:26:56;;;;;;;;;;;;;;;7.15;79.31;100033.53;4211359;28;20054;-70
2024/01/01 10:28:58;;;;;;;;;;;;;;;7.16;79.37;100037.91;4211576;28;20019;-70
2024/01/01 10:30:59;;;;;;;;;;;;;;;7.19;79.33;100024.13;4210952;28;20026;-70
2024/01/01 10:33:03;;;;;;;;;;;;;;;7.18;79.28;100029.69;4209269;28;20023;-70
2024/01/01 10:35:04;;;;;;;;;;;;;;;7.17;79.25;100031.50;4210645;28;20018;-70
2024/01/01 10:37:06;;;;;;;;;;;;;;;7.17;79.51;100023.44;4211500;28;20508;-70
2024/01/01 10:39:08;;;;;;;;;;;;;;;7.19;79.38;100025.97;4211029;28;20031;-70
2024/01/01 10:41:10;;;;;;;;;;;;;;;7.21;79.41;100023.97;4209656;28;20027;-70